Create Custom Reports and Graphics: Custom Report

Latest Observations

MWA Stations

15 Minute Data | America/Los_Angeles
as of 9/1/26 12:40 PM PDT
Station Date Time Temp (°F) RH (%) Dew Pt (°F) Wind Dir (°) Wind Spd (mph) Wind Gust (mph) Solar Rad (W/m2) Pressure (mb) Daily Min Temp (°F) Daily Max Temp (°F) Daily Max Wind (mph) Daily Rain (In) Yest MinT (°F) Yest MaxT (°F) Yest MaxGst (mph) Yest Precip (In) MinBV Day (V)
MWA Office 9/1/26 1230 84.1   5.2 12   6 26.6   14.3 SSW | 208 11.6   0.3 28.9   7.7 921   11 1,011.5   3.3 66.7   2.6 85.1   5.3 28.9   7.0 0.00 64.1 91.0 28.1 0.00 12.4   0.0
MWA OPS 9/1/26 1230 81.5   5.8 16   4 31.6   10.9 SSW | 212 14.2   0.1 23.2   1.5 963   13 1,011.5   3.0 61.4   12.2 82.1   5.7 23.9   0.2 0.00 69.6 88.0 27.8 0.00 12.8   0.0
LV-PS 9/1/26 1230 86.1   3.2 16   6 35.2   10.4 E | 79 3.3   0.4 7.5   2.8 778   162 1,009.2   1.8 59.7   7.8 87.1   2.9 13.2   1.5 0.00 67.5 95.0 27.6 0.00 12.8   0.0
JV-PS 9/1/26 1230 86.0   4.1 18   5 37.2   10.1 N | 9 3.8   5.0 13.6   3.5 932   322 1,009.3   2.2 60.6   1.9 87.7   4.2 16.4   13.6 0.00 62.4 95.2 30.7 0.00 12.8   0.0
BDVWA 9/1/26 1230 83.9   1.8 21   8 40.0   9.9 S | 173 15.3   3.7 28.9   6.6 953   10 1,008.3   0.8 63.6   1.7 84.9   2.0 32.9   10.5 0.00 65.3 89.7 30.9 0.00 12.8   0.0
Newberry Springs 9/1/26 1230 86.7   6.7 17   5 36.6   12.4 N | 350 3.1   1.1 7.7   1.1 974   26 1,011.0   2.9 66.9   5.3 87.6   6.5 17.3   0.9 0.00 72.2 99.8 28.7 0.00 12.9   0.0
Pinon Hills 9/1/26 1230 74.5   5.1 23   2 34.1   1.6 WSW | 242 9.8   0.8 30.2   6.8 938   8 1,010.7   2.8 54.8   6.2 76.0   4.2 30.2   3.5 0.00 59.9 82.4 28.7 0.00 12.8   0.0
Helendale 9/1/26 1230 86.6   5.0 18   4 38.3   9.2 S | 175 6.6   2.5 14.0   3.1 899   15 1,010.1   2.6 54.9   12.2 87.4   5.4 14.0   1.3 0.00 67.0 95.1 26.7 0.00 12.7   0.1
Lenwood 9/1/26 1230 86.9   3.7 13   8 30.9   14.6 W | 276 4.9   2.0 9.9   3.1 946   21 1,010.2   2.5 56.6   10.3 88.2   2.8 12.1   1.8 0.00 66.9 97.5 31.8 0.00 12.8   0.0
Oak Hills 9/1/26 1230 76.8   2.5 23   2 36.6   4.6 S | 172 8.6   1.2 21.5   5.3 965   5 1,010.7   1.5 57.5   2.8 77.6   3.8 24.8   4.8 0.00 58.2 82.1 25.4 0.00 12.9   0.0
Pipes Wash Canyon 9/1/26 1230 82.8   0.3 16   14 32.4   15.5 WSW | 250 3.5   2.1 11.4   6.1 972   7 1,007.4   1.0 61.6   0.7 83.4   0.0 23.7   5.5 0.00 62.3 87.5 23.7 0.00 12.8   0.0
Max     86.9 23 40.0 - 15.3 30.2 974 1,011.5 66.9 88.2 32.9 0.00 72.2 99.8 31.8 0.00 12.9
Avg     83.3 18 34.5 - 7.7 17.9 931 1,010.0 - - - - - - - - -
Min     74.5 12 26.6 - 3.1 7.5 778 1,007.4 54.8 76.0 12.1 0.00 58.2 82.1 23.7 0.00 12.4

Latest Observations

Map

15 Minute Data

Rainfall & ETo

MWA Stations

15 Minute Data | America/Los_Angeles
as of 9/1/26 12:40 PM PDT
Station Date Time Latest Rain (In) Daily Rain (In) Yest Precip (In) Month Precip (In) Season Precip (In) Daily ETo (in) Yest ETo (In) 7 Day ETo (in)
MWA Office 9/1/26 1230 0.00 0.00 0.00 0.00 0.00 0.106 0.28 1.84
MWA OPS 9/1/26 1230 0.00 0.00 0.00 0.00 0.00 0.119 0.33 2.00
LV-PS 9/1/26 1230 0.00 0.00 0.00 0.00 0.34 0.090 0.29 1.98
JV-PS 9/1/26 1230 0.00 0.00 0.00 0.00 0.06 0.085 0.28 1.92
BDVWA 9/1/26 1230 0.00 0.00 0.00 0.00 0.00 0.114 0.31 2.10
Newberry Springs 9/1/26 1230 0.00 0.00 0.00 0.00 1.97 0.120 0.33 2.36
Pinon Hills 9/1/26 1230 0.00 0.00 0.00 0.00 0.19 0.089 0.25 1.76
Helendale 9/1/26 1230 0.00 0.00 0.00 0.00 0.00 0.082 0.30 2.12
Lenwood 9/1/26 1230 0.00 0.00 0.00 0.00 0.09 0.091 0.34 2.09
Oak Hills 9/1/26 1230 0.00 0.00 0.00 0.00 0.00 0.094 0.25 1.76
Pipes Wash Canyon 9/1/26 1230 0.00 0.00 0.00 0.00 0.00 0.098 0.24 1.71
Max     0.00 0.00 0.00 0.00 1.97 0.120 0.34 2.36
Avg     0.00 - - - - - - -
Min     0.00 0.00 0.00 0.00 0.00 0.082 0.24 1.71